Spirit of St Louis, MO

7:28 AM CST on February 23, 2017 (GMT -0600)
Spirit Of Saint Louis | | Change Station

Elev 463 ft 38.66 °N, 90.65 °W | Updated 34 minutes ago

Fog
Fog
43 °F
Feels Like 43 °F
N
0
Wind Variable Wind from North

Today
High -- | Low -- °F
--% Chance of Precip.
Yesterday
High -- | Low -- °F
Precip. -- in
Pressure 29.70 in
Visibility 0.2 miles
Clouds
Dew Point 43 °F
Humidity 100%
Rainfall 0.00 in
Snow Depth Not available.
6:42 AM 5:49 PM
Waning Crescent, 10% visible
METAR KSUS 231254Z 00000KT 1/4SM R08R/1200V2600FT FG VV002 06/06 A2970 RMK AO2 SLP058 T00610061
Pressure 29.70 in
Visibility 0.2 miles
Clouds
Dew Point 43 °F
Humidity 100%
Rainfall 0.00 in
Snow Depth Not available.
6:42 AM 5:49 PM
Waning Crescent, 10% visible
METAR KSUS 231254Z 00000KT 1/4SM R08R/1200V2600FT FG VV002 06/06 A2970 RMK AO2 SLP058 T00610061

Get Your Daily Forecast Email!

Thanks for signing up!

Be on the lookout for a verification email in your inbox.

You'll start receiving the daily forecast at 8 AM.

×

10-Day Weather Forecast

Almanac

Astronomy

Feb. 23, 2017 Rise Set
Actual Time
Civil Twilight
Nautical Twilight
Astronomical Twilight
Moon
Length of Visible Light
Length of Day
Tomorrow will be .
, % of the Moon is Illuminated

Today's Extremes

State Highs State Lows

Community

WunderPhotos

Upload Photos

1,962,540 photos uploaded!

WunderBlog® & News

Nearby

Air Quality

  Air Quality AQ Index Pollutant
Not available.

Snow Depth

Station Depth Elevation

Earthquake Activity

City Distance Mag. Time & Date
Minimum magnitude displayed is 2.5.

Coastal Water Temperatures

Place Temperature

Stations

Nearby Weather Stations

Station Location Temp. Windchill Dew Point Humidity Wind Precip. Elev Updated Type
                   

Watches & Warnings

There are currently no watches in effect.